Union Hall, VA (24176)

5:40 PM EDT on August 30, 2015 (GMT -0400)
Contentment Island-Sailboat Lane | | Change Station
CLOSE
Current Station
Personal Weather Station
Location: Union Hall, VA
Elevation: 804 ft
Nearby Weather Stations

Elev 804 ft 37.05 °N, 79.65 °W | Updated 13 minutes ago

Mostly Cloudy
Mostly Cloudy
80.4 °F
Feels Like 83 °F
N
2.7
Wind Variable Wind from SW

Today
High -- | Low -- °F
--% Chance of Precip.
Yesterday
High -- | Low -- °F
Precip. -- in
6:47 AM 7:50 PM
Full, 98% visible
Pressure 30.12 in
Visibility 10.0 miles
Clouds Few 6000 ft
Mostly Cloudy 12000 ft
Overcast 20000 ft
Heat Index 83 °F
Dew Point 67 °F
Humidity 63%
Rainfall 0.00 in
Snow Depth Not available.
UV 1 out of 12
Pollen 8.70 out of 12
Air Quality Not available.
Flu Activity Not available.
METAR KROA 302054Z 14008KT 10SM FEW060 BKN120 OVC200 27/17 A3015 RMK AO2 SLP198 T02720167 56012
Pressure 30.12 in
Visibility 10.0 miles
Clouds Few 6000 ft
Mostly Cloudy 12000 ft
Overcast 20000 ft
Heat Index 83 °F
Dew Point 67 °F
Humidity 63%
Rainfall 0.00 in
Snow Depth Not available.
UV 1 out of 12
Pollen 8.70 out of 12
Air Quality Not available.
Flu Activity Not available.
METAR KROA 302054Z 14008KT 10SM FEW060 BKN120 OVC200 27/17 A3015 RMK AO2 SLP198 T02720167 56012

10-Day Weather Forecast

×

Almanac

Astronomy

Aug. 30, 2015 Rise Set
Actual Time
Civil Twilight
Nautical Twilight
Astronomical Twilight
Moon
Length of Visible Light
Length of Day
Tomorrow will be .
, % of the Moon is Illuminated

Today's Extremes

State Highs State Lows

Community

WunderPhotos

Upload Photos

1,851,063 photos uploaded!

WunderBlogs® & News

Nearby

Air Quality

  Air Quality AQ Index Pollutant
Not available.

Snow Depth

Station Depth Elevation

Earthquake Activity

City Distance Mag. Time & Date
Minimum magnitude displayed is 2.5.

Coastal Water Temperatures

Place Temperature

Stations

Nearby Weather Stations

Station Location Temp. Windchill Dew Point Humidity Wind Precip. Elev Updated Type